Time;durP1;ratioP1;P1;durP2;ratioP2;P2;SDS_P1;SDS_P2;PMS_P1;PMS_P2;Temp;Humidity;BMP_temperature;BMP_pressure;BME280_temperature;BME280_humidity;BME280_pressure;Samples;Min_cycle;Max_cycle;Signal;HPM_P1;HPM_P2
2022/04/04 00:00:46;;;;;;;11.15;6.78;;;;;;;3.79;97.79;98871.94;5075608;28;20478;-93
2022/04/04 00:03:12;;;;;;;12.77;7.10;;;;;;;3.82;96.80;98869.34;5075504;28;20045;-95
2022/04/04 00:05:39;;;;;;;11.70;6.90;;;;;;;3.85;96.38;98876.34;5075301;28;20040;-93
2022/04/04 00:08:06;;;;;;;10.18;6.38;;;;;;;3.93;96.71;98903.56;5075294;28;20041;-93
2022/04/04 00:10:32;;;;;;;11.88;7.38;;;;;;;3.81;96.69;98887.75;5075226;28;20067;-94
2022/04/04 00:12:58;;;;;;;9.55;5.90;;;;;;;3.61;97.28;98870.16;5075002;28;20037;-94
2022/04/04 00:15:24;;;;;;;11.25;6.43;;;;;;;3.65;96.88;98882.47;5074954;28;20467;-94
2022/04/04 00:17:50;;;;;;;9.60;6.85;;;;;;;3.64;97.16;98888.59;5075468;28;20083;-93
2022/04/04 00:20:17;;;;;;;12.15;8.15;;;;;;;3.70;97.44;98877.19;5075189;28;20060;-94
2022/04/04 00:22:43;;;;;;;11.60;7.97;;;;;;;3.80;96.78;98888.63;5075020;28;20078;-92
2022/04/04 00:25:11;;;;;;;11.63;6.75;;;;;;;3.83;96.54;98892.13;5074866;28;20494;-94
2022/04/04 00:27:36;;;;;;;10.20;6.93;;;;;;;3.70;96.69;98879.84;5074848;28;20360;-93
2022/04/04 00:30:03;;;;;;;11.25;6.88;;;;;;;3.74;97.10;98886.84;5074920;28;20036;-94
2022/04/04 00:32:29;;;;;;;10.20;6.60;;;;;;;3.59;97.72;98865.78;5074646;28;20053;-93
2022/04/04 00:34:55;;;;;;;10.93;7.40;;;;;;;3.58;97.84;98877.16;5074452;28;20178;-95
2022/04/04 00:37:21;;;;;;;10.27;7.25;;;;;;;3.43;97.89;98857.88;5074630;28;20049;-95
2022/04/04 00:39:47;;;;;;;9.65;6.57;;;;;;;3.43;99.45;98870.13;5074589;28;20367;-93
2022/04/04 00:42:16;;;;;;;12.23;7.03;;;;;;;3.48;99.71;98878.91;5074681;28;20041;-93
2022/04/04 00:44:42;;;;;;;8.60;6.60;;;;;;;3.50;99.30;98890.31;5074497;28;20506;-94
2022/04/04 00:47:08;;;;;;;10.02;6.10;;;;;;;3.54;99.46;98902.59;5074554;28;20048;-95
2022/04/04 00:49:34;;;;;;;11.30;7.10;;;;;;;3.46;99.93;98884.16;5074517;28;20051;-93
2022/04/04 00:52:00;;;;;;;12.32;7.70;;;;;;;3.44;99.65;98871.88;5074468;28;20040;-93
2022/04/04 00:54:26;;;;;;;10.77;6.70;;;;;;;3.58;98.80;98885.94;5074200;28;20044;-94
2022/04/04 00:56:52;;;;;;;9.18;7.10;;;;;;;3.52;98.17;98875.41;5074557;28;20075;-94
2022/04/04 00:59:22;;;;;;;12.15;7.35;;;;;;;3.66;98.86;98901.72;5074203;28;20045;-94
2022/04/04 01:01:49;;;;;;;10.27;6.80;;;;;;;3.63;98.99;98901.75;5074404;28;20072;-93
2022/04/04 01:04:16;;;;;;;10.88;6.97;;;;;;;3.66;99.31;98912.25;5074374;28;20101;-93
2022/04/04 01:06:43;;;;;;;9.30;6.40;;;;;;;3.60;99.18;98904.34;5074332;28;20048;-93
2022/04/04 01:09:14;;;;;;;11.02;6.68;;;;;;;3.46;98.85;98894.66;5074486;28;20494;-94
2022/04/04 01:12:01;;;;;;;8.82;6.15;;;;;;;3.50;100.00;98906.94;5074325;28;20036;-93
2022/04/04 01:14:28;;;;;;;10.50;6.00;;;;;;;3.22;100.00;98874.44;5074228;28;20131;-93
2022/04/04 01:16:54;;;;;;;8.88;5.70;;;;;;;3.28;100.00;98899.88;5074599;28;20048;-95
2022/04/04 01:19:20;;;;;;;10.48;6.18;;;;;;;3.17;100.00;98893.69;5074240;28;20048;-93
2022/04/04 01:21:46;;;;;;;8.13;5.95;;;;;;;3.22;100.00;98913.84;5074535;28;20036;-92
2022/04/04 01:24:15;;;;;;;10.45;6.00;;;;;;;3.13;100.00;98915.56;5074146;28;20059;-93
2022/04/04 01:26:45;;;;;;;;;;;;;;;3.13;100.00;98923.44;5074488;28;20075;-94
2022/04/04 01:29:10;;;;;;;8.75;5.40;;;;;;;2.94;100.00;98893.56;5074770;28;19925;-94
2022/04/04 01:31:36;;;;;;;10.50;5.68;;;;;;;2.95;100.00;98906.72;5074291;28;20383;-93
2022/04/04 01:34:02;;;;;;;7.82;5.68;;;;;;;2.90;100.00;98910.16;5074197;28;20139;-93
2022/04/04 01:36:28;;;;;;;8.18;5.32;;;;;;;2.90;100.00;98918.06;5074160;28;20036;-93
2022/04/04 01:38:54;;;;;;;9.27;5.97;;;;;;;2.87;100.00;98916.28;5074230;28;20047;-94
2022/04/04 01:41:21;;;;;;;9.73;6.22;;;;;;;2.72;100.00;98887.31;5073975;28;20047;-94
2022/04/04 01:43:47;;;;;;;9.63;6.53;;;;;;;2.82;100.00;98894.34;5074042;28;20468;-94
2022/04/04 01:49:13;;;;;;;8.93;5.75;;;;;;;3.11;100.00;98907.66;5153784;27;20874;-94
2022/04/04 01:51:40;;;;;;;9.50;6.72;;;;;;;2.94;100.00;98883.06;5153466;27;20449;-94
2022/04/04 01:54:06;;;;;;;8.52;6.10;;;;;;;2.99;100.00;98904.97;5153569;27;20050;-93
2022/04/04 01:56:32;;;;;;;9.35;6.75;;;;;;;3.01;100.00;98916.38;5153454;27;20078;-96
2022/04/04 01:58:59;;;;;;;9.20;6.35;;;;;;;2.87;100.00;98890.91;5153409;27;20043;-95
2022/04/04 02:01:26;;;;;;;9.70;6.80;;;;;;;2.77;100.00;98896.09;5153808;27;20430;-94
2022/04/04 02:03:53;;;;;;;8.90;5.82;;;;;;;2.76;100.00;98899.59;5153435;27;20049;-94
2022/04/04 02:06:20;;;;;;;10.77;6.05;;;;;;;2.67;100.00;98882.91;5153655;27;20129;-94
2022/04/04 02:08:47;;;;;;;10.27;6.90;;;;;;;2.70;100.00;98894.31;5153392;27;20096;-93
2022/04/04 02:11:15;;;;;;;9.32;6.80;;;;;;;2.72;100.00;98888.19;5153307;27;20042;-94
2022/04/04 02:13:41;;;;;;;8.65;6.53;;;;;;;2.74;100.00;98888.22;5153717;27;20063;-95
2022/04/04 02:16:07;;;;;;;9.32;6.53;;;;;;;2.72;100.00;98880.31;5153279;27;20047;-94
2022/04/04 02:18:34;;;;;;;8.38;6.10;;;;;;;2.74;100.00;98885.56;5153641;27;20043;-94
2022/04/04 02:21:01;;;;;;;12.93;7.00;;;;;;;2.74;100.00;98880.31;5153442;27;20045;-94
2022/04/04 02:23:28;;;;;;;9.55;6.53;;;;;;;2.77;100.00;98886.44;5153165;27;20551;-96
2022/04/04 02:25:56;;;;;;;9.80;7.13;;;;;;;2.76;100.00;98897.84;5153118;27;20142;-95
2022/04/04 02:28:22;;;;;;;11.75;7.32;;;;;;;2.79;100.00;98894.34;5153886;27;20039;-95
2022/04/04 02:30:49;;;;;;;10.60;6.88;;;;;;;2.64;100.00;98869.75;5153297;27;20054;-95
2022/04/04 02:33:16;;;;;;;11.63;7.60;;;;;;;2.71;100.00;98878.56;5153564;27;20039;-94
2022/04/04 02:35:42;;;;;;;10.15;7.03;;;;;;;2.82;100.00;98889.09;5153554;27;20043;-94
2022/04/04 02:38:09;;;;;;;10.55;6.70;;;;;;;2.81;100.00;98888.22;5152634;27;20039;-94
2022/04/04 02:40:36;;;;;;;8.82;6.35;;;;;;;3.03;100.00;98893.59;5152738;27;20063;-94
2022/04/04 02:43:03;;;;;;;9.48;6.50;;;;;;;3.04;100.00;98900.63;5152656;27;20396;-94
2022/04/04 02:45:29;;;;;;;10.32;6.82;;;;;;;3.03;100.00;98899.72;5152633;27;20120;-94
2022/04/04 02:47:56;;;;;;;9.52;6.68;;;;;;;2.98;100.00;98892.72;5152456;27;20043;-95
2022/04/04 02:50:22;;;;;;;8.63;6.50;;;;;;;2.96;100.00;98876.06;5152325;27;20043;-95
2022/04/04 02:52:48;;;;;;;9.23;6.70;;;;;;;3.13;100.00;98895.41;5152515;27;20055;-94
2022/04/04 02:58:15;;;;;;;9.32;6.13;;;;;;;3.29;100.00;98877.94;5092534;27;20385;-93
2022/04/04 03:00:42;;;;;;;10.25;6.75;;;;;;;3.33;100.00;98879.72;5092124;28;20044;-94
2022/04/04 03:03:10;;;;;;;;;;;;;;;3.59;100.00;98906.09;5092841;28;20115;-95
2022/04/04 03:05:36;;;;;;;10.98;6.65;;;;;;;3.55;100.00;98874.53;5092040;28;19960;-94
2022/04/04 03:08:04;;;;;;;10.45;6.60;;;;;;;3.57;100.00;98867.53;5091736;28;20385;-94
2022/04/04 03:10:30;;;;;;;10.82;7.00;;;;;;;3.75;100.00;98893.84;5092245;28;20078;-94
2022/04/04 03:12:56;;;;;;;12.02;7.93;;;;;;;3.74;100.00;98886.84;5091798;28;20448;-94
2022/04/04 03:15:24;;;;;;;12.55;7.00;;;;;;;3.68;100.00;98873.69;5091752;28;20037;-93
2022/04/04 03:17:52;;;;;;;11.43;7.03;;;;;;;3.73;100.00;98879.84;5091749;28;20040;-95
2022/04/04 03:20:20;;;;;;;10.68;6.82;;;;;;;3.76;100.00;98885.13;5091630;28;20135;-94
2022/04/04 03:22:48;;;;;;;10.07;6.50;;;;;;;3.83;100.00;98900.03;5091554;28;20048;-94
2022/04/04 03:25:16;;;;;;;10.13;6.90;;;;;;;3.63;99.34;98875.44;5091647;28;20044;-94
2022/04/04 03:27:43;;;;;;;11.88;7.45;;;;;;;3.54;99.65;98880.69;5092111;28;20036;-95
2022/04/04 03:30:12;;;;;;;10.80;7.07;;;;;;;3.55;100.00;98890.31;5091601;28;20040;-94
2022/04/04 03:32:40;;;;;;;10.18;7.18;;;;;;;3.54;100.00;98880.69;5091510;28;20122;-93
2022/04/04 03:35:07;;;;;;;11.75;7.30;;;;;;;3.74;100.00;98909.66;5091460;28;20040;-95
2022/04/04 03:37:33;;;;;;;10.02;7.05;;;;;;;3.74;100.00;98897.38;5091383;28;20056;-94
2022/04/04 03:40:00;;;;;;;10.63;6.30;;;;;;;3.90;100.00;98900.91;5091313;28;20083;-94
2022/04/04 03:42:26;;;;;;;9.07;6.10;;;;;;;3.88;100.00;98884.25;5091554;28;20037;-94
2022/04/04 03:44:51;;;;;;;8.13;5.45;;;;;;;4.02;100.00;98892.16;5091282;28;20036;-95
2022/04/04 03:47:18;;;;;;;10.90;6.90;;;;;;;4.11;100.00;98885.16;5091362;28;20098;-94
2022/04/04 03:49:45;;;;;;;11.10;7.22;;;;;;;4.18;100.00;98893.91;5091184;28;20052;-95
2022/04/04 03:52:11;;;;;;;10.30;7.47;;;;;;;4.17;99.67;98886.91;5091066;28;20041;-95
2022/04/04 03:54:38;;;;;;;10.63;6.97;;;;;;;4.02;98.76;98863.22;5091166;28;20048;-94
2022/04/04 03:57:04;;;;;;;10.88;7.07;;;;;;;4.06;99.17;98891.31;5090566;28;20050;-94
2022/04/04 03:59:32;;;;;;;9.43;6.50;;;;;;;3.98;99.17;98877.25;5091171;28;20076;-92
2022/04/04 04:01:58;;;;;;;8.43;6.30;;;;;;;3.85;98.89;98873.72;5091147;28;20070;-96
2022/04/04 04:04:23;;;;;;;9.98;7.43;;;;;;;3.85;99.16;98894.78;5091218;28;20048;-93
2022/04/04 04:06:51;;;;;;;9.80;6.70;;;;;;;3.75;98.73;98901.75;5090956;28;20389;-94
2022/04/04 04:09:17;;;;;;;7.88;6.22;;;;;;;3.63;100.00;98901.75;5078462;28;20040;-95
2022/04/04 04:11:43;;;;;;;9.73;6.88;;;;;;;3.38;100.00;98888.50;5077365;28;20570;-94
2022/04/04 04:14:09;;;;;;;10.35;6.60;;;;;;;3.20;100.00;98865.66;5077582;28;20076;-94
2022/04/04 04:16:35;;;;;;;8.73;5.80;;;;;;;3.17;100.00;98867.41;5077300;28;20400;-94
2022/04/04 04:19:01;;;;;;;8.80;6.70;;;;;;;3.27;100.00;98895.47;5077336;28;20090;-94
2022/04/04 04:21:27;;;;;;;8.70;5.97;;;;;;;3.15;100.00;98887.56;5077202;28;20049;-94
2022/04/04 04:23:55;;;;;;;8.05;5.88;;;;;;;3.02;100.00;98886.59;5077302;28;20066;-94
2022/04/04 04:26:21;;;;;;;10.07;6.18;;;;;;;3.06;100.00;98891.88;5077244;28;20152;-94
2022/04/04 04:28:47;;;;;;;9.82;6.10;;;;;;;2.93;100.00;98871.69;5077505;28;20040;-94
2022/04/04 04:31:14;;;;;;;9.55;5.75;;;;;;;2.93;100.00;98891.78;5077348;28;20486;-94
2022/04/04 04:33:40;;;;;;;9.43;5.88;;;;;;;2.83;100.00;98880.38;5077506;28;20118;-95
2022/04/04 04:36:07;;;;;;;10.23;6.20;;;;;;;2.97;100.00;98898.81;5076959;28;20048;-94
2022/04/04 04:38:34;;;;;;;9.57;6.15;;;;;;;3.01;100.00;98900.59;5077000;28;20041;-94
2022/04/04 04:41:02;;;;;;;8.70;6.18;;;;;;;2.82;100.00;98884.75;5077163;28;20048;-94
2022/04/04 04:43:28;;;;;;;9.95;6.28;;;;;;;2.99;100.00;98913.75;5076840;28;20053;-94
2022/04/04 04:45:54;;;;;;;15.98;8.02;;;;;;;2.81;100.00;98896.09;5077080;28;20055;-94
2022/04/04 04:48:20;;;;;;;11.05;7.32;;;;;;;2.87;100.00;98904.03;5076950;28;20139;-94
2022/04/04 04:50:47;;;;;;;9.57;6.82;;;;;;;2.86;100.00;98891.78;5076493;28;20118;-93
2022/04/04 04:53:14;;;;;;;9.68;6.72;;;;;;;2.98;100.00;98911.97;5076457;28;20049;-94
2022/04/04 04:55:40;;;;;;;9.98;6.85;;;;;;;2.91;100.00;98902.31;5076260;28;20102;-93
2022/04/04 04:58:07;;;;;;;9.68;6.95;;;;;;;2.96;100.00;98900.56;5076783;28;20044;-93
2022/04/04 05:00:33;;;;;;;11.40;6.63;;;;;;;3.03;100.00;98909.38;5076559;28;20048;-94
2022/04/04 05:06:02;;;;;;;11.73;7.05;;;;;;;3.28;100.00;98913.88;5097035;27;20374;-93
2022/04/04 05:08:30;;;;;;;14.10;7.07;;;;;;;3.32;100.00;98909.53;5096313;28;20040;-94
2022/04/04 05:10:56;;;;;;;9.57;6.45;;;;;;;3.45;100.00;98920.97;5092898;28;20394;-95
2022/04/04 05:13:22;;;;;;;8.63;6.25;;;;;;;3.66;100.00;98931.53;5093608;28;20063;-94
2022/04/04 05:15:48;;;;;;;14.48;6.50;;;;;;;3.50;99.71;98913.97;5092851;28;20485;-94
2022/04/04 05:18:16;;;;;;;11.90;6.40;;;;;;;3.39;98.74;98907.78;5094495;28;20070;-95
2022/04/04 05:20:41;;;;;;;9.13;6.40;;;;;;;3.35;99.71;98913.91;5093023;28;20402;-95
2022/04/04 05:23:09;;;;;;;8.70;6.32;;;;;;;3.37;99.70;98906.91;5096343;28;20044;-95
2022/04/04 05:25:35;;;;;;;8.52;6.30;;;;;;;3.54;99.37;98933.28;5092605;28;20044;-95
2022/04/04 05:28:00;;;;;;;10.25;6.55;;;;;;;3.49;98.58;98928.88;5093336;28;20041;-95
2022/04/04 05:30:26;;;;;;;12.52;7.57;;;;;;;3.41;98.54;98934.97;5094933;28;20051;-94
2022/04/04 05:32:53;;;;;;;10.15;6.85;;;;;;;3.40;99.02;98914.78;5096650;28;20036;-96
2022/04/04 05:35:19;;;;;;;11.57;6.85;;;;;;;3.48;98.82;98913.94;5094710;28;20452;-96
2022/04/04 05:37:45;;;;;;;11.68;6.90;;;;;;;3.63;98.49;98920.16;5093170;28;20045;-95
2022/04/04 05:40:14;;;;;;;11.00;6.88;;;;;;;3.77;97.87;98925.44;5092905;28;20037;-94
2022/04/04 05:42:40;;;;;;;9.63;6.75;;;;;;;4.00;98.00;98957.06;5093371;28;20036;-95
2022/04/04 05:45:09;;;;;;;15.75;9.57;;;;;;;3.89;96.80;98918.44;5092542;28;20101;-95
2022/04/04 05:47:35;;;;;;;15.88;10.23;;;;;;;4.02;96.79;98922.00;5093505;28;20524;-93
2022/04/04 05:50:01;;;;;;;17.02;10.82;;;;;;;4.11;96.79;98921.13;5091653;28;20101;-95
2022/04/04 05:52:28;;;;;;;25.13;15.32;;;;;;;4.31;96.11;98942.19;5092494;28;20048;-95
2022/04/04 05:54:54;;;;;;;21.30;12.38;;;;;;;4.31;95.90;98924.63;5093392;28;20040;-95
2022/04/04 05:57:23;;;;;;;16.52;9.30;;;;;;;4.39;95.45;98929.91;5094433;28;20132;-94
2022/04/04 05:59:49;;;;;;;15.00;9.07;;;;;;;4.58;95.17;98951.88;5093056;28;20493;-96
2022/04/04 06:02:15;;;;;;;20.17;10.77;;;;;;;4.51;94.17;98932.56;5095907;28;20631;-95
2022/04/04 06:04:41;;;;;;;16.85;10.90;;;;;;;4.45;93.80;98922.03;5093673;28;20048;-94
2022/04/04 06:07:07;;;;;;;19.00;11.10;;;;;;;4.67;94.42;98957.13;5094734;28;20115;-94
2022/04/04 06:09:33;;;;;;;17.15;10.52;;;;;;;4.62;92.69;98939.56;5094085;28;20438;-94
2022/04/04 06:11:59;;;;;;;17.95;10.70;;;;;;;4.53;93.65;98930.81;5092801;28;20073;-95
2022/04/04 06:14:26;;;;;;;14.02;9.77;;;;;;;4.52;93.79;98923.78;5092670;28;20509;-95
2022/04/04 06:16:52;;;;;;;18.63;10.20;;;;;;;4.53;94.12;98927.28;5081253;28;20052;-95
2022/04/04 06:19:19;;;;;;;17.00;10.60;;;;;;;4.69;94.84;98936.94;5079062;28;20102;-96
2022/04/04 06:21:45;;;;;;;19.83;11.27;;;;;;;4.90;94.27;98949.22;5079457;28;20509;-94
2022/04/04 06:24:11;;;;;;;17.92;11.63;;;;;;;5.00;94.28;98941.28;5079075;28;20032;-95
2022/04/04 06:26:39;;;;;;;20.42;12.48;;;;;;;5.19;94.03;98947.41;5080013;28;20071;-94
2022/04/04 06:29:04;;;;;;;20.02;12.98;;;;;;;5.35;93.57;98952.59;5079367;28;20036;-95
2022/04/04 06:31:32;;;;;;;16.02;10.93;;;;;;;5.41;92.76;98929.75;5079131;28;20140;-95
2022/04/04 06:33:57;;;;;;;14.20;9.05;;;;;;;5.62;91.45;98952.53;5080996;28;20377;-94
2022/04/04 06:36:26;;;;;;;13.00;8.52;;;;;;;5.51;88.88;98924.44;5080900;28;20045;-95
2022/04/04 06:38:52;;;;;;;13.27;8.97;;;;;;;5.59;89.08;98931.44;5079291;28;20036;-95
2022/04/04 06:41:19;;;;;;;14.02;8.52;;;;;;;5.75;88.28;98946.31;5079294;28;20289;-95
2022/04/04 06:43:45;;;;;;;13.82;8.73;;;;;;;5.72;88.49;98918.16;5078653;28;20494;-95
2022/04/04 06:46:13;;;;;;;16.05;9.20;;;;;;;6.01;87.92;98950.59;5078321;28;20048;-94
2022/04/04 06:48:45;;;;;;;15.23;10.73;;;;;;;6.12;86.33;98956.69;5078324;28;20044;-94
2022/04/04 06:51:11;;;;;;;13.43;8.25;;;;;;;6.04;86.49;98929.47;5079122;28;20037;-96
2022/04/04 06:53:37;;;;;;;13.98;7.75;;;;;;;6.23;86.33;98935.50;5079256;28;20078;-94
2022/04/04 06:56:04;;;;;;;10.85;7.55;;;;;;;6.41;84.06;98942.41;5078061;28;20476;-94
2022/04/04 06:58:30;;;;;;;12.13;6.97;;;;;;;6.50;82.19;98929.13;5078865;28;20064;-93
2022/04/04 07:00:56;;;;;;;10.05;6.63;;;;;;;6.60;80.88;98935.22;5079668;28;20486;-94
2022/04/04 07:03:22;;;;;;;9.88;6.60;;;;;;;6.72;80.37;98950.97;5080423;28;20040;-95
2022/04/04 07:05:49;;;;;;;10.73;6.38;;;;;;;6.91;80.77;98931.41;5079731;28;20052;-96
2022/04/04 07:08:15;;;;;;;15.07;7.97;;;;;;;7.17;79.95;98938.19;5078071;28;20087;-94
2022/04/04 07:10:41;;;;;;;10.82;6.30;;;;;;;7.15;78.27;98938.19;5078368;28;20044;-95
2022/04/04 07:13:07;;;;;;;9.50;6.32;;;;;;;7.01;75.90;98931.31;5078498;28;20068;-95
2022/04/04 07:15:33;;;;;;;8.43;5.68;;;;;;;7.17;74.64;98930.25;5078282;28;20045;-93
2022/04/04 07:17:59;;;;;;;8.63;6.45;;;;;;;7.09;75.27;98924.16;5079644;28;20551;-94
2022/04/04 07:20:25;;;;;;;13.43;6.43;;;;;;;7.33;76.01;98929.22;5078071;28;20497;-93
2022/04/04 07:22:53;;;;;;;10.93;5.97;;;;;;;7.55;74.02;98951.00;5078861;28;20402;-96
2022/04/04 07:25:21;;;;;;;8.63;5.22;;;;;;;7.92;74.00;98936.41;5077394;28;20421;-94
2022/04/04 07:27:48;;;;;;;9.80;6.38;;;;;;;8.28;72.65;98937.63;5076790;28;20131;-95
2022/04/04 07:30:17;;;;;;;11.25;5.65;;;;;;;8.13;69.40;98933.47;5079438;28;20040;-93
2022/04/04 07:32:44;;;;;;;9.73;5.85;;;;;;;8.14;70.34;98966.13;5079365;28;20425;-95
2022/04/04 07:35:11;;;;;;;8.73;4.80;;;;;;;8.52;67.66;98943.50;5078302;28;20147;-94
2022/04/04 07:37:38;;;;;;;9.65;5.45;;;;;;;8.79;66.87;98948.34;5077651;28;20079;-94
2022/04/04 07:40:07;;;;;;;8.38;5.30;;;;;;;9.07;65.44;98960.25;5078282;28;20123;-95
2022/04/04 07:42:33;;;;;;;8.00;5.05;;;;;;;9.24;63.65;98929.84;5078918;28;20127;-96
2022/04/04 07:44:59;;;;;;;7.50;4.68;;;;;;;9.48;63.10;98955.94;5080354;28;20427;-96
2022/04/04 07:47:24;;;;;;;8.98;4.78;;;;;;;9.48;62.77;98945.31;5078261;28;20048;-96
2022/04/04 07:49:50;;;;;;;6.72;4.28;;;;;;;9.44;62.32;98939.22;5081898;28;20054;-94
2022/04/04 07:52:16;;;;;;;6.82;4.88;;;;;;;9.46;61.79;98948.03;5082466;28;20056;-95
2022/04/04 07:54:42;;;;;;;9.38;5.03;;;;;;;9.55;64.23;98933.69;5080937;28;20093;-95
2022/04/04 07:57:10;;;;;;;6.40;3.83;;;;;;;9.70;60.99;98965.22;5076913;28;20502;-94
2022/04/04 07:59:36;;;;;;;6.88;4.78;;;;;;;9.55;62.62;98949.63;5076448;28;20135;-95
2022/04/04 08:02:02;;;;;;;8.93;5.03;;;;;;;9.18;63.02;98947.66;5078958;28;20051;-96
2022/04/04 08:04:28;;;;;;;5.50;4.05;;;;;;;9.35;63.93;98950.00;5076600;28;20048;-96
2022/04/04 08:06:54;;;;;;;7.30;4.72;;;;;;;9.62;64.65;98960.06;5076318;28;20067;-95
2022/04/04 08:09:20;;;;;;;6.22;4.70;;;;;;;9.89;63.65;98952.44;5075532;28;20068;-96
2022/04/04 08:11:46;;;;;;;9.45;5.50;;;;;;;10.14;62.33;98974.03;5075792;28;20045;-95
2022/04/04 08:14:14;;;;;;;7.88;4.38;;;;;;;10.17;59.99;98951.81;5076125;28;20048;-94
2022/04/04 08:16:39;;;;;;;5.28;4.00;;;;;;;10.56;60.56;98976.66;5075474;28;20063;-94
2022/04/04 08:19:06;;;;;;;8.45;4.53;;;;;;;10.46;60.03;98945.88;5076055;28;20052;-95
2022/04/04 08:21:31;;;;;;;11.38;4.65;;;;;;;10.39;58.46;98939.84;5075963;28;20044;-96
2022/04/04 08:23:57;;;;;;;7.53;4.18;;;;;;;10.64;59.23;98968.50;5077031;28;20094;-95
2022/04/04 08:26:23;;;;;;;6.97;3.90;;;;;;;10.64;58.32;98953.41;5074946;28;20135;-95
2022/04/04 08:28:49;;;;;;;7.80;4.28;;;;;;;10.78;59.71;98945.09;5074652;28;20052;-95
2022/04/04 08:31:16;;;;;;;9.38;3.70;;;;;;;10.90;60.35;98949.22;5075717;28;20127;-95
2022/04/04 08:33:42;;;;;;;12.20;3.88;;;;;;;11.35;59.74;98959.59;5078481;28;20048;-96
2022/04/04 08:36:11;;;;;;;5.32;3.55;;;;;;;11.03;57.39;98944.47;5076484;28;20574;-94
2022/04/04 08:38:38;;;;;;;6.87;3.43;;;;;;;11.13;60.39;98953.09;5076364;28;20497;-96
2022/04/04 08:41:05;;;;;;;9.90;4.15;;;;;;;10.86;59.58;98948.44;5076820;28;20055;-96
2022/04/04 08:43:35;;;;;;;7.78;4.15;;;;;;;10.76;61.30;98970.88;5078676;28;20094;-96
2022/04/04 08:46:03;;;;;;;8.73;4.28;;;;;;;10.88;61.64;98948.38;5078303;28;20083;-96
2022/04/04 08:48:32;;;;;;;7.95;4.20;;;;;;;11.22;60.93;98934.22;5077312;28;20048;-95
2022/04/04 08:50:57;;;;;;;7.93;4.10;;;;;;;11.33;59.25;98945.44;5079356;28;20127;-96
2022/04/04 08:53:24;;;;;;;12.73;5.15;;;;;;;11.05;60.25;98938.19;5078166;28;20063;-94
2022/04/04 08:55:49;;;;;;;7.68;4.88;;;;;;;11.54;59.53;98935.09;5079413;28;20033;-94
2022/04/04 08:58:16;;;;;;;10.35;4.35;;;;;;;11.77;56.80;98932.63;5080069;28;20055;-95
2022/04/04 09:00:42;;;;;;;10.27;5.20;;;;;;;12.20;55.56;98958.03;5079848;28;20040;-96
2022/04/04 09:03:09;;;;;;;8.45;4.20;;;;;;;12.37;55.15;98938.84;5080485;28;20074;-95
2022/04/04 09:05:50;;;;;;;9.73;4.85;;;;;;;12.36;55.01;98937.13;5078980;28;20056;-94
2022/04/04 09:08:18;;;;;;;12.45;4.65;;;;;;;12.28;54.71;98925.81;5078970;28;20036;-94
2022/04/04 09:10:45;;;;;;;8.23;4.22;;;;;;;12.17;54.39;98933.28;5079499;28;20037;-94
2022/04/04 09:13:12;;;;;;;7.90;4.10;;;;;;;11.98;55.45;98928.50;5078470;28;20048;-94
2022/04/04 09:15:58;;;;;;;8.18;4.45;;;;;;;12.43;55.36;98948.47;5079356;28;20045;-94
2022/04/04 09:18:49;;;;;;;10.93;4.50;;;;;;;12.72;53.59;98953.72;5078666;28;20055;-93
2022/04/04 09:21:33;;;;;;;9.65;6.05;;;;;;;12.70;53.02;98936.00;5073704;28;20119;-94
2022/04/04 09:24:03;;;;;;;9.07;3.92;;;;;;;12.70;52.96;98925.34;5079857;28;20040;-95
2022/04/04 09:26:31;;;;;;;7.15;2.90;;;;;;;12.82;50.75;98938.28;5079540;28;20048;-93
2022/04/04 09:28:59;;;;;;;8.83;3.27;;;;;;;12.35;49.41;98926.50;5077394;28;20072;-94
2022/04/04 09:31:24;;;;;;;8.57;3.50;;;;;;;12.64;51.32;98936.22;5078312;28;20128;-93
2022/04/04 09:33:51;;;;;;;5.72;3.90;;;;;;;12.63;50.63;98927.34;5077754;28;20509;-94
2022/04/04 09:36:17;;;;;;;11.82;3.58;;;;;;;12.40;50.95;98928.06;5078922;28;20071;-95
2022/04/04 09:38:55;;;;;;;6.75;3.50;;;;;;;12.07;51.54;98914.88;5078946;28;20075;-96
2022/04/04 09:41:22;;;;;;;10.45;3.38;;;;;;;11.77;53.55;98935.31;5077905;28;20044;-96
2022/04/04 09:43:52;;;;;;;6.97;3.47;;;;;;;11.43;52.73;98933.63;5078316;28;20047;-96
2022/04/04 09:46:18;;;;;;;7.20;3.22;;;;;;;11.48;52.74;98909.53;5078808;28;20040;-95
2022/04/04 09:49:04;;;;;;;10.43;4.68;;;;;;;12.41;53.22;98944.97;5078373;28;20055;-95
2022/04/04 09:51:41;;;;;;;11.27;5.03;;;;;;;12.80;51.54;98908.09;5077590;28;20067;-95
2022/04/04 09:54:13;;;;;;;7.70;3.60;;;;;;;12.95;49.54;98914.72;5079467;28;20056;-94
2022/04/04 09:56:42;;;;;;;8.65;3.10;;;;;;;12.93;48.51;98922.78;5079871;28;20052;-95
2022/04/04 09:59:10;;;;;;;7.80;3.28;;;;;;;12.85;47.70;98918.63;5080608;28;20132;-95
2022/04/04 10:01:37;;;;;;;7.90;3.30;;;;;;;13.13;48.53;98921.22;5079437;28;20044;-95
2022/04/04 10:04:06;;;;;;;7.22;3.20;;;;;;;13.39;46.52;98900.75;5078096;28;20078;-95
2022/04/04 10:06:34;;;;;;;10.52;3.92;;;;;;;13.52;47.19;98910.94;5078203;28;20036;-94
2022/04/04 10:09:01;;;;;;;8.43;3.42;;;;;;;13.74;46.21;98899.44;5077970;28;20045;-95
2022/04/04 10:11:30;;;;;;;7.80;3.67;;;;;;;13.78;46.80;98887.72;5077917;28;20059;-96
2022/04/04 10:13:57;;;;;;;7.00;3.13;;;;;;;13.55;46.87;98883.22;5078299;28;20055;-95
2022/04/04 10:16:24;;;;;;;10.13;3.72;;;;;;;13.50;45.08;98899.44;5078793;28;20045;-94
2022/04/04 10:18:50;;;;;;;10.82;3.35;;;;;;;13.20;41.71;98898.69;5078060;28;20049;-94
2022/04/04 10:21:16;;;;;;;9.45;3.30;;;;;;;13.15;42.54;98872.16;5077470;28;20134;-95
2022/04/04 10:23:44;;;;;;;7.18;3.78;;;;;;;13.33;45.19;98864.44;5077582;28;20106;-94
2022/04/04 10:26:14;;;;;;;6.38;3.50;;;;;;;13.52;45.18;98870.84;5078265;28;20047;-94
2022/04/04 10:28:44;;;;;;;10.70;3.92;;;;;;;13.39;45.79;98885.59;5078423;28;20070;-95
2022/04/04 10:31:12;;;;;;;8.27;3.85;;;;;;;13.03;45.94;98879.75;5070934;28;20052;-96
2022/04/04 10:33:38;;;;;;;10.00;3.90;;;;;;;13.54;44.59;98873.47;5078124;28;20036;-94
2022/04/04 10:36:06;;;;;;;7.63;3.75;;;;;;;13.25;43.77;98870.06;5078604;28;20490;-96
2022/04/04 10:38:35;;;;;;;6.05;3.20;;;;;;;12.51;43.29;98859.28;5077941;28;20139;-94
2022/04/04 10:41:03;;;;;;;8.07;3.40;;;;;;;12.53;44.48;98860.09;5077774;28;20056;-96
2022/04/04 10:43:32;;;;;;;6.72;2.88;;;;;;;12.94;44.11;98881.81;5077512;28;20056;-95
2022/04/04 10:46:02;;;;;;;8.27;2.85;;;;;;;12.95;41.57;98878.22;5077259;28;20044;-94
2022/04/04 10:48:32;;;;;;;7.30;3.13;;;;;;;12.52;41.95;98868.16;5077716;28;20048;-95
2022/04/04 10:51:02;;;;;;;5.57;3.13;;;;;;;12.49;45.96;98837.13;5078137;28;20094;-95
2022/04/04 10:53:43;;;;;;;12.18;4.45;;;;;;;12.76;42.68;98838.88;5079258;28;20044;-95
2022/04/04 10:56:15;;;;;;;7.85;3.65;;;;;;;12.22;38.91;98860.22;5079359;28;20051;-96
2022/04/04 10:58:41;;;;;;;9.02;4.03;;;;;;;12.18;40.00;98868.38;5077576;28;20049;-94
2022/04/04 11:01:15;;;;;;;9.05;3.22;;;;;;;11.82;41.81;98849.91;5079783;28;20061;-95
2022/04/04 11:03:54;;;;;;;5.40;3.08;;;;;;;11.11;37.22;98841.34;5083079;28;20547;-94
2022/04/04 11:09:50;;;;;;;8.27;2.50;;;;;;;11.84;35.62;98842.72;5111749;27;20730;-95
2022/04/04 11:12:18;;;;;;;7.43;2.78;;;;;;;11.82;37.46;98833.91;5076736;28;20159;-95
2022/04/04 11:14:57;;;;;;;4.68;2.50;;;;;;;11.72;38.71;98830.69;5080777;28;20133;-94
2022/04/04 11:20:32;;;;;;;8.88;2.97;;;;;;;11.81;42.03;98833.06;5140162;27;20386;-95
2022/04/04 11:22:59;;;;;;;9.15;4.45;;;;;;;12.03;40.24;98843.06;5139493;28;20081;-95
2022/04/04 11:25:29;;;;;;;5.22;2.85;;;;;;;12.26;40.34;98818.34;5137554;28;20097;-95
2022/04/04 11:27:57;;;;;;;7.47;2.83;;;;;;;11.88;41.21;98839.09;5135904;28;20039;-95
2022/04/04 11:30:25;;;;;;;12.67;3.60;;;;;;;11.85;42.62;98804.53;5133702;28;20050;-93
2022/04/04 11:32:54;;;;;;;8.55;2.80;;;;;;;11.80;41.68;98831.31;5135205;28;20075;-95
2022/04/04 11:35:22;;;;;;;5.88;3.08;;;;;;;11.95;41.25;98834.44;5133795;28;20096;-95
2022/04/04 11:37:51;;;;;;;7.85;3.33;;;;;;;11.89;42.51;98817.75;5133554;28;20521;-95
2022/04/04 11:40:23;;;;;;;14.77;5.97;;;;;;;12.13;43.37;98834.72;5133821;28;20055;-96
2022/04/04 11:42:51;;;;;;;8.25;3.97;;;;;;;12.40;40.88;98797.41;5132897;28;20039;-95
2022/04/04 11:45:18;;;;;;;6.70;3.30;;;;;;;12.69;40.70;98792.88;5136112;28;20063;-95
2022/04/04 11:47:52;;;;;;;5.68;2.97;;;;;;;13.00;41.26;98810.47;5134922;28;20489;-96